Time;durP1;ratioP1;P1;durP2;ratioP2;P2;SDS_P1;SDS_P2;PMS_P1;PMS_P2;Temp;Humidity;BMP_temperature;BMP_pressure;BME280_temperature;BME280_humidity;BME280_pressure;Samples;Min_cycle;Max_cycle;Signal;HPM_P1;HPM_P2
2023/12/10 00:00:30;;;;;;;7.30;1.80;;;7.80;82.80;;;;;;5023062;28;20025;-62
2023/12/10 00:02:55;;;;;;;6.35;1.60;;;7.80;82.50;;;;;;5021696;28;20030;-60
2023/12/10 00:05:21;;;;;;;7.15;1.60;;;8.00;82.50;;;;;;5026456;28;20018;-61
2023/12/10 00:07:47;;;;;;;9.43;1.65;;;8.10;82.40;;;;;;5025180;28;20487;-61
2023/12/10 00:10:12;;;;;;;9.63;1.80;;;8.30;82.20;;;;;;5021220;28;20087;-60
2023/12/10 00:12:39;;;;;;;8.18;1.98;;;8.40;81.70;;;;;;5024959;28;20091;-62
2023/12/10 00:15:05;;;;;;;9.85;1.88;;;8.50;81.30;;;;;;5020485;28;20057;-60
2023/12/10 00:17:30;;;;;;;7.20;1.75;;;8.60;81.20;;;;;;5021043;28;20506;-62
2023/12/10 00:19:56;;;;;;;10.98;2.10;;;8.60;80.90;;;;;;5026473;28;20041;-62
2023/12/10 00:22:23;;;;;;;9.38;2.20;;;8.70;80.70;;;;;;5024690;28;20021;-61
2023/12/10 00:24:49;;;;;;;10.98;2.05;;;8.80;80.70;;;;;;5025207;28;20684;-61
2023/12/10 00:27:14;;;;;;;10.02;2.45;;;8.80;80.50;;;;;;5025671;28;20037;-60
2023/12/10 00:29:40;;;;;;;11.90;2.10;;;8.90;80.60;;;;;;5027294;28;20436;-61
2023/12/10 00:32:06;;;;;;;9.70;2.85;;;9.00;80.40;;;;;;5025423;28;20029;-61
2023/12/10 00:34:32;;;;;;;8.75;2.03;;;9.00;80.10;;;;;;5025458;28;20025;-61
2023/12/10 00:36:57;;;;;;;13.07;2.40;;;9.10;79.90;;;;;;5029381;28;20035;-61
2023/12/10 00:39:23;;;;;;;11.68;2.17;;;9.10;79.70;;;;;;5024819;28;20025;-60
2023/12/10 00:41:49;;;;;;;10.05;2.38;;;9.20;79.80;;;;;;5022989;28;20054;-60
2023/12/10 00:44:15;;;;;;;9.57;2.13;;;9.20;79.60;;;;;;5020396;28;20041;-60
2023/12/10 00:46:41;;;;;;;7.20;1.77;;;9.30;79.40;;;;;;5001698;28;20550;-61
2023/12/10 00:49:08;;;;;;;9.88;2.17;;;9.30;79.40;;;;;;5024787;28;20029;-62
2023/12/10 00:51:34;;;;;;;7.15;1.88;;;9.30;79.20;;;;;;5030001;28;20043;-60
2023/12/10 00:53:59;;;;;;;11.10;2.20;;;9.30;79.00;;;;;;5025903;28;20022;-62
2023/12/10 00:56:25;;;;;;;11.77;2.08;;;9.30;78.70;;;;;;5025262;28;20543;-61
2023/12/10 00:58:51;;;;;;;8.85;2.13;;;9.30;78.60;;;;;;5023754;28;20036;-61
2023/12/10 01:01:16;;;;;;;10.48;2.22;;;9.30;78.50;;;;;;5023931;28;20026;-62
2023/12/10 01:03:42;;;;;;;11.20;2.65;;;9.30;78.30;;;;;;5024517;28;20038;-61
2023/12/10 01:06:10;;;;;;;10.48;2.08;;;9.30;78.40;;;;;;5023429;28;20030;-61
2023/12/10 01:08:35;;;;;;;9.23;1.98;;;9.30;78.30;;;;;;5025137;28;20025;-61
2023/12/10 01:11:02;;;;;;;13.02;2.42;;;9.30;78.20;;;;;;5016661;28;20372;-61
2023/12/10 01:13:28;;;;;;;12.57;2.42;;;9.30;78.10;;;;;;5021190;28;20034;-61
2023/12/10 01:15:54;;;;;;;9.30;2.30;;;9.30;78.00;;;;;;5023500;28;20036;-62
2023/12/10 01:18:21;;;;;;;9.40;2.30;;;9.30;78.60;;;;;;5024846;28;20044;-61
2023/12/10 01:20:47;;;;;;;20.50;2.83;;;9.30;77.80;;;;;;5023946;28;20396;-60
2023/12/10 01:23:14;;;;;;;13.48;2.47;;;9.30;77.70;;;;;;5023305;28;20033;-61
2023/12/10 01:25:40;;;;;;;19.85;3.30;;;9.30;77.60;;;;;;5023789;28;20025;-62
2023/12/10 01:28:07;;;;;;;15.18;2.90;;;9.30;77.60;;;;;;5007055;28;20388;-61
2023/12/10 01:30:33;;;;;;;15.32;2.70;;;9.20;77.50;;;;;;5023028;28;20637;-61
2023/12/10 01:32:59;;;;;;;17.48;3.30;;;9.20;77.40;;;;;;5020861;28;21236;-61
2023/12/10 01:35:25;;;;;;;15.32;2.58;;;9.20;77.40;;;;;;5024093;28;20036;-61
2023/12/10 01:37:51;;;;;;;13.73;2.83;;;9.20;77.20;;;;;;5024018;28;20083;-61
2023/12/10 01:40:17;;;;;;;17.02;2.90;;;9.20;77.10;;;;;;5023303;28;20411;-62
2023/12/10 01:42:44;;;;;;;12.85;3.28;;;9.20;77.20;;;;;;5007814;28;20128;-60
2023/12/10 01:45:10;;;;;;;14.20;3.88;;;9.20;77.20;;;;;;5003596;28;20070;-61
2023/12/10 01:47:39;;;;;;;16.40;3.22;;;9.20;77.20;;;;;;4937318;28;20022;-62
2023/12/10 01:50:06;;;;;;;22.55;3.88;;;9.20;77.00;;;;;;5002227;28;20140;-60
2023/12/10 01:52:34;;;;;;;19.08;3.28;;;9.20;77.10;;;;;;5003791;28;20044;-62
2023/12/10 01:55:02;;;;;;;19.20;3.67;;;9.20;77.00;;;;;;5003552;28;20026;-60
2023/12/10 01:57:30;;;;;;;19.00;4.25;;;9.30;76.90;;;;;;5003965;28;20018;-61
2023/12/10 01:59:57;;;;;;;18.35;3.65;;;9.30;76.70;;;;;;4998620;28;20044;-60
2023/12/10 02:02:23;;;;;;;18.33;4.13;;;9.30;76.40;;;;;;5004054;28;20534;-62
2023/12/10 02:04:53;;;;;;;19.02;3.42;;;9.30;76.50;;;;;;5005527;28;20057;-61
2023/12/10 02:07:21;;;;;;;27.30;3.67;;;9.50;76.80;;;;;;5001535;28;20428;-60
2023/12/10 02:09:48;;;;;;;21.33;4.43;;;9.60;76.20;;;;;;5000920;28;20033;-60
2023/12/10 02:12:14;;;;;;;30.60;4.82;;;9.30;76.10;;;;;;5003515;28;20038;-60
2023/12/10 02:14:40;;;;;;;21.83;3.78;;;9.30;75.80;;;;;;5002802;28;20897;-60
2023/12/10 02:17:06;;;;;;;26.30;3.97;;;9.30;75.90;;;;;;5004219;28;20032;-61
2023/12/10 02:19:32;;;;;;;22.73;3.65;;;9.30;75.80;;;;;;5001725;28;20030;-61
2023/12/10 02:21:59;;;;;;;23.55;4.40;;;9.30;75.70;;;;;;5002234;28;20033;-61
2023/12/10 02:24:49;;;;;;;24.60;4.03;;;9.30;75.70;;;;;;5003846;28;20034;-60
2023/12/10 02:27:15;;;;;;;23.67;4.78;;;9.30;75.00;;;;;;5000764;28;20120;-60
2023/12/10 02:29:41;;;;;;;21.88;3.70;;;9.30;75.40;;;;;;5000473;28;20488;-61
2023/12/10 02:32:07;;;;;;;27.00;4.32;;;9.40;75.50;;;;;;5003033;28;20503;-61
2023/12/10 02:34:33;;;;;;;30.02;4.93;;;9.40;75.40;;;;;;5003658;28;20125;-61
2023/12/10 02:36:59;;;;;;;24.58;3.88;;;9.40;75.30;;;;;;5003089;28;20096;-60
2023/12/10 02:39:24;;;;;;;31.88;5.10;;;9.40;75.20;;;;;;5008161;28;20044;-62
2023/12/10 02:41:50;;;;;;;30.48;4.53;;;9.40;75.00;;;;;;5016633;28;20048;-62
2023/12/10 02:44:15;;;;;;;28.70;5.07;;;9.40;74.90;;;;;;5018520;28;20043;-61
2023/12/10 02:46:45;;;;;;;24.83;4.03;;;9.50;74.60;;;;;;4926698;28;20071;-62
2023/12/10 02:49:10;;;;;;;34.38;4.82;;;9.50;74.30;;;;;;5020468;28;20116;-60
2023/12/10 02:51:36;;;;;;;20.80;3.95;;;9.50;74.40;;;;;;5023010;28;20120;-61
2023/12/10 02:54:02;;;;;;;26.02;4.55;;;9.50;74.30;;;;;;5022618;28;20025;-61
2023/12/10 02:56:28;;;;;;;29.45;5.00;;;9.50;74.40;;;;;;5018240;28;20033;-62
2023/12/10 02:58:54;;;;;;;18.25;3.83;;;9.50;74.30;;;;;;4995444;28;20069;-62
2023/12/10 03:01:20;;;;;;;20.05;4.25;;;9.50;74.10;;;;;;5022610;28;20061;-61
2023/12/10 03:03:45;;;;;;;25.40;4.82;;;9.50;74.10;;;;;;5023266;28;20108;-61
2023/12/10 03:06:11;;;;;;;20.85;3.85;;;9.40;73.90;;;;;;5024979;28;20439;-61
2023/12/10 03:08:37;;;;;;;28.15;4.15;;;9.40;74.00;;;;;;5009441;28;20033;-60
2023/12/10 03:11:02;;;;;;;17.27;4.10;;;9.40;73.90;;;;;;5026685;28;20029;-62
2023/12/10 03:13:28;;;;;;;21.05;4.25;;;9.40;73.80;;;;;;5026088;28;20553;-60
2023/12/10 03:15:54;;;;;;;19.38;3.83;;;9.50;73.90;;;;;;5026221;28;20442;-60
2023/12/10 03:18:19;;;;;;;23.27;3.47;;;9.30;73.60;;;;;;5025249;28;20022;-62
2023/12/10 03:20:45;;;;;;;26.13;3.95;;;9.20;73.70;;;;;;5026110;28;20057;-61
2023/12/10 03:23:11;;;;;;;20.27;4.35;;;9.20;73.80;;;;;;5020801;28;20039;-61
2023/12/10 03:25:36;;;;;;;25.30;4.60;;;9.10;73.90;;;;;;5025806;28;20167;-61
2023/12/10 03:28:02;;;;;;;23.33;3.85;;;9.10;74.00;;;;;;5025644;28;20487;-62
2023/12/10 03:30:28;;;;;;;22.70;4.20;;;9.00;74.20;;;;;;5025088;28;20033;-60
2023/12/10 03:32:54;;;;;;;25.45;3.85;;;9.00;74.40;;;;;;5025720;28;20041;-61
2023/12/10 03:35:19;;;;;;;26.45;3.85;;;8.90;74.60;;;;;;5026588;28;20048;-61
2023/12/10 03:37:46;;;;;;;17.30;3.78;;;8.90;74.90;;;;;;5026606;28;20033;-63
2023/12/10 03:40:12;;;;;;;11.75;2.58;;;8.90;75.20;;;;;;5007011;28;20029;-59
2023/12/10 03:42:38;;;;;;;10.40;2.40;;;8.80;75.20;;;;;;5027505;28;20057;-61
2023/12/10 03:45:05;;;;;;;8.93;2.05;;;8.80;75.20;;;;;;5025449;28;20033;-60
2023/12/10 03:47:30;;;;;;;7.25;1.90;;;8.80;75.20;;;;;;4934280;28;20115;-60
2023/12/10 03:49:56;;;;;;;7.32;1.80;;;8.80;75.20;;;;;;5022150;28;20110;-60
2023/12/10 03:52:21;;;;;;;3.88;1.35;;;8.70;75.10;;;;;;5030547;28;20037;-60
2023/12/10 03:54:47;;;;;;;5.97;1.70;;;8.70;75.10;;;;;;5026354;28;20067;-61
2023/12/10 03:57:13;;;;;;;6.18;1.50;;;8.60;74.90;;;;;;5004748;28;20052;-61
2023/12/10 03:59:38;;;;;;;7.13;1.77;;;8.60;75.00;;;;;;5021780;28;20518;-60
2023/12/10 04:02:04;;;;;;;4.97;1.48;;;8.50;74.90;;;;;;5025248;28;20411;-60
2023/12/10 04:04:30;;;;;;;5.90;1.60;;;8.50;75.00;;;;;;5026093;28;20052;-62
2023/12/10 04:06:56;;;;;;;7.85;1.90;;;8.40;75.00;;;;;;5026285;28;20472;-63
2023/12/10 04:09:22;;;;;;;7.22;1.70;;;8.40;74.90;;;;;;5024225;28;20021;-62
2023/12/10 04:11:48;;;;;;;9.20;1.90;;;8.30;75.00;;;;;;5026015;28;20045;-60
2023/12/10 04:14:14;;;;;;;11.00;1.92;;;8.30;75.00;;;;;;5024296;28;20439;-61
2023/12/10 04:16:39;;;;;;;13.05;2.38;;;8.30;75.00;;;;;;5023875;28;20025;-61
2023/12/10 04:19:05;;;;;;;8.90;2.22;;;8.20;75.00;;;;;;5025201;28;20029;-61
2023/12/10 04:21:31;;;;;;;10.75;2.08;;;8.20;75.10;;;;;;5026077;28;20034;-62
2023/12/10 04:23:56;;;;;;;10.18;2.47;;;8.20;75.10;;;;;;5026066;28;20095;-62
2023/12/10 04:26:22;;;;;;;13.13;2.00;;;8.10;75.20;;;;;;5025733;28;20120;-61
2023/12/10 04:28:49;;;;;;;14.38;2.55;;;8.10;75.20;;;;;;5022573;28;20053;-62
2023/12/10 04:31:15;;;;;;;12.98;2.72;;;8.10;75.30;;;;;;5024543;28;20045;-62
2023/12/10 04:33:44;;;;;;;7.25;2.20;;;8.10;75.40;;;;;;5021721;28;20434;-62
2023/12/10 04:36:10;;;;;;;10.50;2.75;;;8.10;75.50;;;;;;5024255;28;20037;-62
2023/12/10 04:38:36;;;;;;;12.10;2.72;;;8.10;75.50;;;;;;5027183;28;20092;-61
2023/12/10 04:41:02;;;;;;;12.63;2.50;;;8.00;75.50;;;;;;5023334;28;20049;-61
2023/12/10 04:43:28;;;;;;;10.05;2.40;;;8.10;75.60;;;;;;5024144;28;20475;-61
2023/12/10 04:45:55;;;;;;;12.43;2.65;;;8.10;75.60;;;;;;5019314;28;20142;-60
2023/12/10 04:48:21;;;;;;;13.77;2.45;;;8.00;75.60;;;;;;5024522;28;20506;-61
2023/12/10 04:50:46;;;;;;;16.73;2.88;;;8.10;75.60;;;;;;5024679;28;20032;-61
2023/12/10 04:53:12;;;;;;;19.10;4.22;;;8.10;75.60;;;;;;5023520;28;20041;-62
2023/12/10 04:55:38;;;;;;;11.43;2.78;;;8.10;75.50;;;;;;5024720;28;20457;-62
2023/12/10 04:58:03;;;;;;;13.27;2.63;;;8.10;75.40;;;;;;5025388;28;20037;-61
2023/12/10 05:00:29;;;;;;;17.20;2.85;;;8.20;75.40;;;;;;5025603;28;20026;-60
2023/12/10 05:02:54;;;;;;;20.00;3.53;;;8.20;75.50;;;;;;5023979;28;20033;-60
2023/12/10 05:05:20;;;;;;;16.80;3.22;;;8.20;75.30;;;;;;5006495;28;20056;-60
2023/12/10 05:07:46;;;;;;;16.85;3.08;;;8.20;75.20;;;;;;5024611;28;20044;-61
2023/12/10 05:10:12;;;;;;;15.52;3.00;;;8.20;75.00;;;;;;5018083;28;20036;-60
2023/12/10 05:12:37;;;;;;;13.27;3.00;;;8.30;75.10;;;;;;5024355;28;20513;-61
2023/12/10 05:15:04;;;;;;;11.57;2.42;;;8.30;74.80;;;;;;5019963;28;20084;-59
2023/12/10 05:17:29;;;;;;;16.17;2.70;;;8.30;74.80;;;;;;5023940;28;20037;-59
2023/12/10 05:19:55;;;;;;;18.50;3.13;;;8.30;74.70;;;;;;5024613;28;20084;-60
2023/12/10 05:22:21;;;;;;;20.50;3.17;;;8.30;74.70;;;;;;5020837;28;20033;-61
2023/12/10 05:24:46;;;;;;;22.88;3.72;;;8.30;74.60;;;;;;5020557;28;20080;-60
2023/12/10 05:27:13;;;;;;;14.30;2.30;;;8.30;74.50;;;;;;5023905;28;20044;-61
2023/12/10 05:29:39;;;;;;;14.05;2.60;;;8.30;74.50;;;;;;5024303;28;20839;-60
2023/12/10 05:32:04;;;;;;;14.93;3.10;;;8.30;74.50;;;;;;5021042;28;20049;-61
2023/12/10 05:34:30;;;;;;;21.73;3.15;;;8.30;74.10;;;;;;5022318;28;20527;-60
2023/12/10 05:36:56;;;;;;;16.30;3.50;;;8.30;74.20;;;;;;5024785;28;20030;-61
2023/12/10 05:39:21;;;;;;;28.63;3.15;;;8.30;74.00;;;;;;5023124;28;20017;-61
2023/12/10 05:41:47;;;;;;;17.92;3.20;;;8.40;73.50;;;;;;5026557;28;20116;-60
2023/12/10 05:44:13;;;;;;;16.00;3.10;;;8.40;73.60;;;;;;5018920;28;20029;-60
2023/12/10 05:46:39;;;;;;;11.45;2.80;;;8.40;73.30;;;;;;4965724;28;20048;-62
2023/12/10 05:49:06;;;;;;;18.55;3.13;;;8.50;73.00;;;;;;5023767;28;20034;-61
2023/12/10 05:51:31;;;;;;;14.60;3.30;;;8.50;72.90;;;;;;5023816;28;20112;-61
2023/12/10 05:53:57;;;;;;;16.17;2.72;;;8.50;72.40;;;;;;5021862;28;20053;-61
2023/12/10 05:56:23;;;;;;;14.73;3.15;;;8.60;72.60;;;;;;5022966;28;20022;-61
2023/12/10 05:58:49;;;;;;;17.00;2.95;;;8.60;72.20;;;;;;5022360;28;20034;-60
2023/12/10 06:01:14;;;;;;;21.55;3.85;;;8.60;72.10;;;;;;5020577;28;20042;-63
2023/12/10 06:03:40;;;;;;;18.10;3.03;;;8.60;71.50;;;;;;5023953;28;20052;-62
2023/12/10 06:06:07;;;;;;;17.23;3.35;;;8.70;71.60;;;;;;5021115;28;20029;-61
2023/12/10 06:08:32;;;;;;;23.98;3.22;;;8.70;71.50;;;;;;5022395;28;20032;-63
2023/12/10 06:10:58;;;;;;;14.80;2.80;;;8.80;71.40;;;;;;5024232;28;20034;-61
2023/12/10 06:13:23;;;;;;;17.15;3.22;;;8.80;71.20;;;;;;5020876;28;20042;-60
2023/12/10 06:15:49;;;;;;;12.98;2.53;;;8.80;71.00;;;;;;5022592;28;20075;-63
2023/12/10 06:18:15;;;;;;;17.35;3.28;;;8.80;70.90;;;;;;5023058;28;20048;-60
2023/12/10 06:20:41;;;;;;;18.25;3.33;;;8.80;70.30;;;;;;5023465;28;20035;-61
2023/12/10 06:23:06;;;;;;;15.02;3.67;;;8.80;70.80;;;;;;5022046;28;20502;-61
2023/12/10 06:25:32;;;;;;;17.45;3.88;;;8.80;70.90;;;;;;5021235;28;20495;-60
2023/12/10 06:27:57;;;;;;;13.13;2.55;;;8.80;71.10;;;;;;5020254;28;20060;-61
2023/12/10 06:30:23;;;;;;;11.10;2.35;;;8.80;70.50;;;;;;5025834;28;20142;-61
2023/12/10 06:32:49;;;;;;;18.83;3.50;;;8.80;70.80;;;;;;5021998;28;20072;-61
2023/12/10 06:35:15;;;;;;;22.65;3.40;;;8.80;70.70;;;;;;5023132;28;20033;-61
2023/12/10 06:37:41;;;;;;;20.30;3.58;;;8.80;70.70;;;;;;5022760;28;20029;-61
2023/12/10 06:40:07;;;;;;;17.85;3.20;;;8.80;70.70;;;;;;5004725;28;20065;-60
2023/12/10 06:42:36;;;;;;;17.17;3.05;;;8.80;70.60;;;;;;5026281;28;20090;-61
2023/12/10 06:45:05;;;;;;;20.23;2.88;;;8.80;70.20;;;;;;5022551;28;20544;-59
2023/12/10 06:47:32;;;;;;;17.65;2.97;;;8.80;70.10;;;;;;4969988;28;20095;-61
2023/12/10 06:49:57;;;;;;;12.00;2.90;;;8.80;70.20;;;;;;5026966;28;20032;-61
2023/12/10 06:52:23;;;;;;;13.10;2.63;;;8.80;70.00;;;;;;5021285;28;20041;-59
2023/12/10 06:54:49;;;;;;;14.85;3.13;;;8.80;69.90;;;;;;5023558;28;20444;-60
2023/12/10 06:57:14;;;;;;;9.65;2.83;;;8.90;69.90;;;;;;5022730;28;20061;-61
2023/12/10 06:59:40;;;;;;;21.50;3.40;;;8.90;69.70;;;;;;5026315;28;20064;-61
2023/12/10 07:02:06;;;;;;;16.67;3.13;;;8.90;69.50;;;;;;5026107;28;20060;-61
2023/12/10 07:04:32;;;;;;;16.50;3.45;;;8.90;69.40;;;;;;5022324;28;20057;-61
2023/12/10 07:06:58;;;;;;;15.90;3.10;;;8.90;69.40;;;;;;5027214;28;20037;-62
2023/12/10 07:09:24;;;;;;;14.65;3.10;;;8.90;69.30;;;;;;5026683;28;20037;-60
2023/12/10 07:11:49;;;;;;;16.65;3.20;;;9.00;69.10;;;;;;5026329;28;20091;-61
2023/12/10 07:14:15;;;;;;;16.45;3.30;;;9.00;69.30;;;;;;5026163;28;20029;-62
2023/12/10 07:16:41;;;;;;;17.83;3.33;;;9.00;69.10;;;;;;5024116;28;20037;-61
2023/12/10 07:19:06;;;;;;;15.80;3.60;;;9.00;68.50;;;;;;5027628;28;20079;-61
2023/12/10 07:21:32;;;;;;;21.70;3.40;;;9.00;68.90;;;;;;5028374;28;20033;-62
2023/12/10 07:23:58;;;;;;;10.38;2.15;;;9.00;68.90;;;;;;5027041;28;20033;-62
2023/12/10 07:26:24;;;;;;;18.10;2.90;;;9.00;69.00;;;;;;5027010;28;20556;-62
2023/12/10 07:28:51;;;;;;;14.88;2.88;;;9.00;68.80;;;;;;5026008;28;20487;-63
2023/12/10 07:31:18;;;;;;;16.27;2.88;;;9.00;68.40;;;;;;5023879;28;20083;-62
2023/12/10 07:33:44;;;;;;;16.30;3.30;;;9.00;68.70;;;;;;5026334;28;20566;-62
2023/12/10 07:36:10;;;;;;;10.60;2.95;;;9.00;68.70;;;;;;5026698;28;20068;-62
2023/12/10 07:38:36;;;;;;;13.73;2.95;;;9.10;68.70;;;;;;5027141;28;20033;-63
2023/12/10 07:41:04;;;;;;;12.20;2.83;;;9.10;68.70;;;;;;5027275;28;20041;-63
2023/12/10 07:43:30;;;;;;;14.02;3.20;;;9.00;68.80;;;;;;5025971;28;20035;-62
2023/12/10 07:45:55;;;;;;;19.63;3.78;;;9.10;68.70;;;;;;4954578;28;20049;-64
2023/12/10 07:48:21;;;;;;;15.27;3.05;;;9.10;68.30;;;;;;5022988;28;20112;-61
2023/12/10 07:50:47;;;;;;;13.60;2.80;;;9.10;68.60;;;;;;5022293;28;20109;-63
2023/12/10 07:53:13;;;;;;;11.95;3.00;;;9.10;68.60;;;;;;5009599;28;20502;-62
2023/12/10 07:55:38;;;;;;;13.70;2.72;;;9.10;69.20;;;;;;5026362;28;20025;-63
2023/12/10 07:58:04;;;;;;;10.38;2.90;;;9.10;68.40;;;;;;5025794;28;20234;-63
2023/12/10 08:00:30;;;;;;;10.88;2.90;;;9.00;68.40;;;;;;5025102;28;20025;-64
2023/12/10 08:02:55;;;;;;;25.25;5.90;;;9.00;68.60;;;;;;5025560;28;20172;-64
2023/12/10 08:05:21;;;;;;;63.45;15.18;;;9.00;68.70;;;;;;5008336;28;20554;-63
2023/12/10 08:07:47;;;;;;;46.13;10.60;;;9.00;68.50;;;;;;5025461;28;20038;-62
2023/12/10 08:10:13;;;;;;;19.45;5.07;;;8.90;68.80;;;;;;5024372;28;20032;-63
2023/12/10 08:12:39;;;;;;;18.45;4.80;;;8.90;69.00;;;;;;5024528;28;20033;-62
2023/12/10 08:15:05;;;;;;;51.60;18.02;;;9.00;68.80;;;;;;5025661;28;20407;-62
2023/12/10 08:17:31;;;;;;;30.60;11.93;;;8.90;69.00;;;;;;5022955;28;20482;-62
2023/12/10 08:19:57;;;;;;;38.63;13.07;;;9.00;69.30;;;;;;5019793;28;20113;-63
2023/12/10 08:22:22;;;;;;;20.05;8.27;;;9.00;69.30;;;;;;5009251;28;20036;-63
2023/12/10 08:24:49;;;;;;;20.00;7.30;;;9.00;69.10;;;;;;5010893;28;20480;-63
2023/12/10 08:27:14;;;;;;;20.45;5.43;;;9.00;69.10;;;;;;5022764;28;20042;-61
2023/12/10 08:29:40;;;;;;;14.55;4.03;;;9.00;69.30;;;;;;5025146;28;20033;-62
2023/12/10 08:32:06;;;;;;;21.25;3.45;;;9.00;69.10;;;;;;5022059;28;20049;-62
2023/12/10 08:34:33;;;;;;;14.38;2.53;;;9.10;69.30;;;;;;5022476;28;20063;-63
2023/12/10 08:36:58;;;;;;;14.68;3.08;;;9.10;69.40;;;;;;5007114;28;20117;-62
2023/12/10 08:39:24;;;;;;;10.23;2.53;;;9.10;70.00;;;;;;5005310;28;20021;-62
2023/12/10 08:41:50;;;;;;;20.25;6.45;;;9.10;69.40;;;;;;5023978;28;20113;-62
2023/12/10 08:44:17;;;;;;;11.40;3.30;;;9.10;69.10;;;;;;5023379;28;20533;-63
2023/12/10 08:46:43;;;;;;;12.02;3.03;;;9.10;69.40;;;;;;4965404;28;20117;-62
2023/12/10 08:49:08;;;;;;;14.63;2.70;;;9.10;69.40;;;;;;5021863;28;20034;-62
2023/12/10 08:51:34;;;;;;;14.65;6.38;;;9.10;69.20;;;;;;5018734;28;20030;-62
2023/12/10 08:54:00;;;;;;;18.17;7.25;;;9.10;69.30;;;;;;5024240;28;20033;-63
2023/12/10 08:56:26;;;;;;;19.65;5.63;;;9.10;69.30;;;;;;5007078;28;20037;-61
2023/12/10 08:58:52;;;;;;;16.73;4.03;;;9.10;69.40;;;;;;5021238;28;20488;-63
2023/12/10 09:01:18;;;;;;;15.02;3.53;;;9.10;69.40;;;;;;5023260;28;20067;-62
2023/12/10 09:03:45;;;;;;;11.48;3.78;;;9.20;69.60;;;;;;5004981;28;20030;-64
2023/12/10 09:06:11;;;;;;;12.80;3.20;;;9.20;70.00;;;;;;5022390;28;20033;-62
2023/12/10 09:08:38;;;;;;;10.85;3.45;;;9.20;69.90;;;;;;5004988;28;20032;-62
2023/12/10 09:11:04;;;;;;;17.88;3.92;;;9.30;69.70;;;;;;5022029;28;20514;-63
2023/12/10 09:13:33;;;;;;;16.30;4.90;;;9.30;69.40;;;;;;5022239;28;20045;-62
2023/12/10 09:15:59;;;;;;;15.82;4.95;;;9.40;69.50;;;;;;4999931;28;20037;-61
2023/12/10 09:18:28;;;;;;;15.68;3.28;;;9.40;69.40;;;;;;5022567;28;20041;-62
2023/12/10 09:20:54;;;;;;;15.50;2.55;;;9.50;69.40;;;;;;5022688;28;20938;-63
2023/12/10 09:23:23;;;;;;;11.55;2.78;;;9.50;69.40;;;;;;5000534;28;20025;-62
2023/12/10 09:25:49;;;;;;;16.85;3.15;;;9.60;68.80;;;;;;5021158;28;20025;-62
2023/12/10 09:28:14;;;;;;;15.05;2.80;;;9.60;68.90;;;;;;5019856;28;20237;-62
2023/12/10 09:30:40;;;;;;;13.10;2.90;;;9.70;68.70;;;;;;5022817;28;20368;-61
2023/12/10 09:33:06;;;;;;;12.60;3.20;;;9.70;68.80;;;;;;5004641;28;20037;-61
2023/12/10 09:35:32;;;;;;;13.07;3.03;;;9.80;68.70;;;;;;5025252;28;20029;-62
2023/12/10 09:37:57;;;;;;;13.45;2.85;;;9.90;68.90;;;;;;5023320;28;20067;-62
2023/12/10 09:40:23;;;;;;;14.40;2.72;;;9.90;68.90;;;;;;5022953;28;20104;-62
2023/12/10 09:42:49;;;;;;;13.60;2.88;;;10.00;68.60;;;;;;5018811;28;20494;-62
2023/12/10 09:45:18;;;;;;;9.88;2.45;;;10.10;68.60;;;;;;4997661;28;20029;-61
2023/12/10 09:47:44;;;;;;;12.57;2.88;;;10.10;68.40;;;;;;5020524;28;20077;-61
2023/12/10 09:50:10;;;;;;;12.65;2.80;;;10.20;68.20;;;;;;5027217;28;20061;-62
2023/12/10 09:52:36;;;;;;;15.30;3.20;;;10.30;68.20;;;;;;5023997;28;20167;-63
2023/12/10 09:55:02;;;;;;;11.60;2.83;;;10.30;67.80;;;;;;5005467;28;20036;-62
2023/12/10 09:57:30;;;;;;;12.23;2.78;;;10.40;68.10;;;;;;5022881;28;21216;-62
2023/12/10 09:59:56;;;;;;;11.10;2.47;;;10.50;68.20;;;;;;5023245;28;20400;-62
2023/12/10 10:02:29;;;;;;;17.80;2.72;;;10.60;68.40;;;;;;5018062;28;20034;-62
2023/12/10 10:04:55;;;;;;;10.40;2.65;;;10.80;67.80;;;;;;5018221;28;20041;-61
2023/12/10 10:07:21;;;;;;;11.73;2.50;;;10.90;67.30;;;;;;5019741;28;20032;-63
2023/12/10 10:09:46;;;;;;;18.80;3.72;;;11.00;67.40;;;;;;5022911;28;20037;-62
2023/12/10 10:12:13;;;;;;;13.90;3.55;;;11.00;66.90;;;;;;5022278;28;20034;-62
2023/12/10 10:15:06;;;;;;;18.17;2.83;;;11.10;66.80;;;;;;5020272;28;20029;-62
2023/12/10 10:17:35;;;;;;;14.82;2.72;;;11.10;66.40;;;;;;4996648;28;20088;-61
2023/12/10 10:20:04;;;;;;;10.15;3.17;;;11.00;66.20;;;;;;5020107;28;20076;-62
2023/12/10 10:22:31;;;;;;;10.02;3.15;;;11.00;66.20;;;;;;5020900;28;20026;-62
2023/12/10 10:24:57;;;;;;;19.75;3.85;;;10.90;66.40;;;;;;5024906;28;20163;-61
2023/12/10 10:27:22;;;;;;;16.23;3.40;;;10.80;66.30;;;;;;5022724;28;20030;-61
2023/12/10 10:29:53;;;;;;;10.57;2.53;;;10.70;66.40;;;;;;5000904;28;20465;-62
2023/12/10 10:32:19;;;;;;;16.42;3.35;;;10.70;66.40;;;;;;5022681;28;20064;-62
2023/12/10 10:34:46;;;;;;;11.57;3.28;;;10.60;66.40;;;;;;5022466;28;20087;-62
2023/12/10 10:37:15;;;;;;;12.85;3.45;;;10.50;66.40;;;;;;5001366;28;20057;-62
2023/12/10 10:39:42;;;;;;;13.40;3.85;;;10.50;66.30;;;;;;5017764;28;20021;-62
2023/12/10 10:42:10;;;;;;;17.40;4.97;;;10.40;65.60;;;;;;5019966;28;20690;-62
2023/12/10 10:44:38;;;;;;;19.63;6.20;;;10.40;66.10;;;;;;5000345;28;20057;-62
2023/12/10 10:47:08;;;;;;;20.02;5.22;;;10.40;66.40;;;;;;4957036;28;20033;-63
2023/12/10 10:49:36;;;;;;;18.40;3.78;;;10.40;66.30;;;;;;5004404;28;20036;-62
2023/12/10 10:52:05;;;;;;;14.95;4.47;;;10.40;66.70;;;;;;5015221;28;20117;-62
2023/12/10 10:54:34;;;;;;;18.42;4.72;;;10.40;66.50;;;;;;5021431;28;20109;-62
2023/12/10 10:57:07;;;;;;;17.10;3.17;;;10.30;66.50;;;;;;5019322;28;20049;-62
2023/12/10 10:59:34;;;;;;;17.73;3.50;;;10.30;66.90;;;;;;5016523;28;20029;-62
2023/12/10 11:02:07;;;;;;;13.40;4.30;;;10.30;66.90;;;;;;5019664;28;20029;-62
2023/12/10 11:04:37;;;;;;;12.07;4.03;;;10.20;66.70;;;;;;5020094;28;20029;-62
2023/12/10 11:07:04;;;;;;;16.27;4.88;;;10.20;67.00;;;;;;5022355;28;20117;-62
2023/12/10 11:09:33;;;;;;;15.52;4.28;;;10.20;67.00;;;;;;5001259;28;20034;-61
2023/12/10 11:11:59;;;;;;;10.85;2.70;;;10.10;67.10;;;;;;5019789;28;20311;-62
2023/12/10 11:14:25;;;;;;;11.27;2.90;;;10.10;67.10;;;;;;5000555;28;21437;-63
2023/12/10 11:16:57;;;;;;;10.02;2.50;;;10.10;67.00;;;;;;5018315;28;20419;-63
2023/12/10 11:19:23;;;;;;;12.57;2.72;;;10.10;67.00;;;;;;5022207;28;20041;-62
2023/12/10 11:21:52;;;;;;;12.32;3.42;;;10.10;67.00;;;;;;5018081;28;20032;-63
2023/12/10 11:24:18;;;;;;;8.43;3.85;;;10.10;67.20;;;;;;5020573;28;20059;-63
2023/12/10 11:26:43;;;;;;;17.65;7.38;;;10.10;67.20;;;;;;5023456;28;20091;-62
2023/12/10 11:29:09;;;;;;;11.07;3.33;;;10.10;67.50;;;;;;5024494;28;20115;-62
2023/12/10 11:31:35;;;;;;;13.57;4.55;;;10.20;67.80;;;;;;5027429;28;20026;-63
2023/12/10 11:34:01;;;;;;;12.13;4.90;;;10.20;67.70;;;;;;4992433;28;20506;-63
2023/12/10 11:36:27;;;;;;;13.65;3.33;;;10.30;67.50;;;;;;5025916;28;20029;-63
2023/12/10 11:38:53;;;;;;;10.20;4.32;;;10.30;67.50;;;;;;5022864;28;20154;-62
2023/12/10 11:41:19;;;;;;;13.60;3.45;;;10.40;67.10;;;;;;5027992;28;20857;-63
2023/12/10 11:43:45;;;;;;;11.93;4.22;;;10.40;67.30;;;;;;5003191;28;20768;-62
2023/12/10 11:46:33;;;;;;;14.73;5.53;;;10.40;67.00;;;;;;5007361;28;20034;-62
2023/12/10 11:48:59;;;;;;;8.48;3.03;;;10.40;66.00;;;;;;4916321;28;20625;-62
2023/12/10 11:51:27;;;;;;;10.07;2.63;;;10.50;66.60;;;;;;5000636;28;20034;-63
2023/12/10 11:53:55;;;;;;;9.77;2.50;;;10.50;66.80;;;;;;5006196;28;20160;-63
2023/12/10 11:56:21;;;;;;;6.57;1.85;;;10.50;66.50;;;;;;4972867;28;20380;-63
2023/12/10 11:58:47;;;;;;;8.10;2.30;;;10.50;66.60;;;;;;5004525;28;20034;-64
2023/12/10 12:01:16;;;;;;;8.05;2.38;;;10.50;66.70;;;;;;5008168;28;20033;-61
2023/12/10 12:03:43;;;;;;;8.45;2.05;;;10.50;66.80;;;;;;5004918;28;20215;-62
2023/12/10 12:06:09;;;;;;;5.97;2.22;;;10.60;66.70;;;;;;5005658;28;20112;-63
2023/12/10 12:08:37;;;;;;;8.50;2.08;;;10.60;66.50;;;;;;5005268;28;20109;-62
2023/12/10 12:11:05;;;;;;;7.93;2.28;;;10.60;66.50;;;;;;4987095;28;20329;-62
2023/12/10 12:13:35;;;;;;;9.43;2.03;;;10.70;66.50;;;;;;4995609;28;20033;-60
2023/12/10 12:16:03;;;;;;;12.52;2.40;;;10.70;67.00;;;;;;5001888;28;20042;-60
2023/12/10 12:18:33;;;;;;;7.25;2.17;;;10.80;66.30;;;;;;4985363;28;20058;-63
2023/12/10 12:20:58;;;;;;;10.95;2.13;;;10.80;66.30;;;;;;5002723;28;20030;-63
2023/12/10 12:23:24;;;;;;;12.40;2.60;;;10.80;66.40;;;;;;4988804;28;20026;-63
2023/12/10 12:25:50;;;;;;;12.27;2.40;;;10.80;66.10;;;;;;5003748;28;20063;-61
2023/12/10 12:28:15;;;;;;;8.50;2.28;;;10.80;66.20;;;;;;4985254;28;20061;-61
2023/12/10 12:30:44;;;;;;;8.73;2.55;;;10.90;66.30;;;;;;5000974;28;20037;-63
2023/12/10 12:33:10;;;;;;;10.18;2.47;;;11.00;66.50;;;;;;5000619;28;20045;-62
2023/12/10 12:35:37;;;;;;;9.88;1.88;;;11.00;66.20;;;;;;4987412;28;20088;-62
2023/12/10 12:38:03;;;;;;;7.95;2.00;;;11.10;65.50;;;;;;4983032;28;20493;-62
2023/12/10 12:40:28;;;;;;;12.38;2.28;;;11.10;65.00;;;;;;5000408;28;20038;-63